Time;durP1;ratioP1;P1;durP2;ratioP2;P2;SDS_P1;SDS_P2;PMS_P1;PMS_P2;Temp;Humidity;BMP_temperature;BMP_pressure;BME280_temperature;BME280_humidity;BME280_pressure;Samples;Min_cycle;Max_cycle;Signal;HPM_P1;HPM_P2
2022/04/29 00:00:40;;;;;;;16.58;8.65;;;;;;;9.75;100.00;97688.63;4961170;28;20074;-69
2022/04/29 00:03:07;;;;;;;24.33;8.93;;;;;;;9.71;100.00;97688.22;4963341;28;20574;-69
2022/04/29 00:05:37;;;;;;;16.48;8.00;;;;;;;9.52;100.00;97675.78;4962160;28;20532;-68
2022/04/29 00:08:06;;;;;;;15.80;7.85;;;;;;;9.59;100.00;97686.44;4960321;28;20097;-72
2022/04/29 00:10:34;;;;;;;20.80;7.97;;;;;;;9.60;100.00;97670.19;4961849;28;20373;-69
2022/04/29 00:13:00;;;;;;;21.63;8.25;;;;;;;9.63;100.00;97679.63;4962248;28;20121;-70
2022/04/29 00:15:26;;;;;;;17.88;8.95;;;;;;;9.63;100.00;97677.75;4962182;28;20035;-69
2022/04/29 00:17:52;;;;;;;18.05;8.48;;;;;;;9.55;100.00;97669.97;4961171;28;20458;-71
2022/04/29 00:20:17;;;;;;;17.60;8.30;;;;;;;9.61;100.00;97671.81;4960723;28;20039;-69
2022/04/29 00:22:44;;;;;;;17.20;8.45;;;;;;;9.47;100.00;97670.22;4962119;28;20288;-71
2022/04/29 00:25:11;;;;;;;17.75;8.02;;;;;;;9.34;100.00;97667.59;4962818;28;20046;-72
2022/04/29 00:27:38;;;;;;;19.30;7.80;;;;;;;9.41;100.00;97668.41;4963055;28;20493;-70
2022/04/29 00:30:04;;;;;;;18.73;8.38;;;;;;;9.42;100.00;97656.72;4976957;28;20059;-69
2022/04/29 00:32:30;;;;;;;15.13;7.63;;;;;;;9.34;100.00;97667.59;4962095;28;20046;-71
2022/04/29 00:34:56;;;;;;;19.05;8.65;;;;;;;9.38;100.00;97660.81;4963899;28;20034;-68
2022/04/29 00:37:21;;;;;;;14.85;8.30;;;;;;;9.36;100.00;97663.69;4962417;28;20917;-68
2022/04/29 00:39:47;;;;;;;12.32;7.30;;;;;;;9.36;100.00;97665.56;4962897;28;20042;-68
2022/04/29 00:42:14;;;;;;;17.48;8.15;;;;;;;9.33;100.00;97658.75;4961233;28;20049;-72
2022/04/29 00:44:41;;;;;;;15.82;7.82;;;;;;;9.30;100.00;97659.19;4960853;28;20466;-69
2022/04/29 00:47:10;;;;;;;14.95;7.55;;;;;;;9.32;100.00;97648.28;4962292;28;20034;-69
2022/04/29 00:49:36;;;;;;;17.00;7.28;;;;;;;9.35;100.00;97647.91;4962208;28;20070;-71
2022/04/29 00:52:02;;;;;;;16.90;7.18;;;;;;;9.33;100.00;97650.75;4962624;28;20628;-69
2022/04/29 00:54:32;;;;;;;18.27;7.88;;;;;;;9.32;100.00;97656.31;4962089;28;20074;-69
2022/04/29 00:56:59;;;;;;;11.00;6.63;;;;;;;9.28;100.00;97655.94;4976689;28;20574;-69
2022/04/29 00:59:30;;;;;;;13.40;7.03;;;;;;;9.10;100.00;97653.91;4961251;28;20272;-71
2022/04/29 01:01:57;;;;;;;15.02;7.18;;;;;;;8.93;100.00;97652.72;4961808;28;20064;-69
2022/04/29 01:04:30;;;;;;;15.63;7.15;;;;;;;8.95;100.00;97640.00;4960135;28;20039;-69
2022/04/29 01:06:56;;;;;;;14.52;7.72;;;;;;;8.90;100.00;97643.28;4975510;28;20235;-71
2022/04/29 01:09:22;;;;;;;16.25;7.72;;;;;;;8.76;100.00;97630.19;4955496;28;20046;-69
2022/04/29 01:11:49;;;;;;;13.32;6.93;;;;;;;8.76;100.00;97632.84;4962856;28;20066;-69
2022/04/29 01:14:15;;;;;;;14.98;7.40;;;;;;;8.77;100.00;97639.81;4975378;28;20327;-68
2022/04/29 01:16:41;;;;;;;12.32;7.22;;;;;;;8.84;100.00;97629.97;4960944;28;20034;-69
2022/04/29 01:19:07;;;;;;;17.92;7.75;;;;;;;8.79;100.00;97629.75;4974255;28;20085;-69
2022/04/29 01:21:33;;;;;;;15.63;6.80;;;;;;;8.71;100.00;97621.97;4961192;28;20425;-71
2022/04/29 01:23:58;;;;;;;14.00;7.13;;;;;;;8.49;100.00;97611.56;4961923;28;20134;-69
2022/04/29 01:26:24;;;;;;;12.20;6.68;;;;;;;8.67;100.00;97612.75;4974341;28;20053;-71
2022/04/29 01:28:52;;;;;;;18.02;7.45;;;;;;;8.69;100.00;97613.38;4956514;28;20035;-69
2022/04/29 01:31:22;;;;;;;13.30;7.15;;;;;;;8.57;100.00;97619.34;4975295;28;20047;-69
2022/04/29 01:33:50;;;;;;;12.38;6.65;;;;;;;8.60;100.00;97612.75;4976862;28;20126;-71
2022/04/29 01:36:16;;;;;;;16.50;7.05;;;;;;;8.60;100.00;97620.78;4976040;28;20513;-69
2022/04/29 01:38:42;;;;;;;15.27;6.90;;;;;;;8.66;100.00;97617.28;4977208;28;20520;-71
2022/04/29 01:41:08;;;;;;;16.55;7.18;;;;;;;8.68;100.00;97623.22;4975759;28;20430;-69
2022/04/29 01:43:37;;;;;;;15.18;7.03;;;;;;;8.75;100.00;97623.22;4958589;28;20646;-70
2022/04/29 01:46:04;;;;;;;13.68;6.93;;;;;;;8.73;100.00;97617.28;4973809;28;20051;-70
2022/04/29 01:48:53;;;;;;;13.23;6.78;;;;;;;8.69;100.00;97608.03;4965385;28;20055;-70
2022/04/29 01:51:42;;;;;;;12.18;7.38;;;;;;;8.74;100.00;97616.25;4977236;28;20045;-70
2022/04/29 01:54:10;;;;;;;12.95;6.78;;;;;;;8.74;100.00;97618.91;4961491;28;20042;-70
2022/04/29 01:56:40;;;;;;;16.02;7.35;;;;;;;8.80;100.00;97621.56;4976309;28;20054;-69
2022/04/29 01:59:10;;;;;;;11.90;6.25;;;;;;;8.78;100.00;97617.44;4975370;28;20034;-69
2022/04/29 02:01:46;;;;;;;13.98;7.07;;;;;;;8.80;100.00;97615.41;4975381;28;20042;-69
2022/04/29 02:04:13;;;;;;;16.85;6.47;;;;;;;8.78;100.00;97612.09;4954806;28;20452;-70
2022/04/29 02:06:38;;;;;;;10.95;6.53;;;;;;;8.76;100.00;97614.16;4976051;28;20074;-69
2022/04/29 02:09:05;;;;;;;15.85;7.10;;;;;;;8.69;100.00;97616.03;4974529;28;20316;-70
2022/04/29 02:11:31;;;;;;;15.82;7.22;;;;;;;8.65;100.00;97613.78;4974933;28;20133;-69
2022/04/29 02:14:17;;;;;;;14.90;6.90;;;;;;;8.62;100.00;97602.69;4956276;28;20129;-69
2022/04/29 02:16:55;;;;;;;14.95;6.75;;;;;;;8.62;100.00;97600.84;4974597;28;20035;-69
2022/04/29 02:19:22;;;;;;;15.52;6.70;;;;;;;8.57;100.00;97599.84;4974797;28;20039;-69
2022/04/29 02:21:48;;;;;;;14.88;6.50;;;;;;;8.47;100.00;97594.91;4978914;28;20043;-71
2022/04/29 02:24:15;;;;;;;14.27;6.15;;;;;;;8.43;100.00;97599.03;4978612;28;21052;-69
2022/04/29 02:26:41;;;;;;;12.10;6.35;;;;;;;8.44;100.00;97592.69;4978018;28;20039;-68
2022/04/29 02:29:09;;;;;;;16.98;6.32;;;;;;;8.43;100.00;97599.03;4978626;28;20096;-69
2022/04/29 02:31:35;;;;;;;15.05;6.63;;;;;;;8.36;100.00;97592.91;4976348;28;20115;-69
2022/04/29 02:34:00;;;;;;;20.42;6.88;;;;;;;8.36;100.00;97583.03;4962882;28;20043;-71
2022/04/29 02:36:26;;;;;;;14.60;6.38;;;;;;;8.38;100.00;97588.16;4977848;28;20093;-69
2022/04/29 02:38:51;;;;;;;13.43;6.75;;;;;;;8.32;100.00;97583.63;4977736;28;20045;-71
2022/04/29 02:41:17;;;;;;;14.35;6.35;;;;;;;8.28;100.00;97582.41;4978301;28;20038;-69
2022/04/29 02:43:44;;;;;;;12.38;6.35;;;;;;;8.28;100.00;97575.22;4963075;28;20116;-68
2022/04/29 02:46:09;;;;;;;11.95;6.38;;;;;;;8.25;100.00;97575.66;4979148;28;20043;-69
2022/04/29 02:48:43;;;;;;;17.52;6.85;;;;;;;8.24;100.00;97578.50;4963580;28;20684;-70
2022/04/29 02:51:09;;;;;;;14.05;6.90;;;;;;;8.20;100.00;97569.28;4976937;28;20113;-69
2022/04/29 02:53:36;;;;;;;12.52;6.43;;;;;;;8.14;100.00;97570.09;4961853;28;20045;-72
2022/04/29 02:56:02;;;;;;;14.20;6.78;;;;;;;8.14;100.00;97575.44;4978694;28;20062;-69
2022/04/29 02:58:45;;;;;;;12.52;6.10;;;;;;;8.08;100.00;97569.88;4964055;28;20454;-72
2022/04/29 03:01:11;;;;;;;20.08;6.68;;;;;;;8.03;100.00;97567.03;4961365;28;20621;-69
2022/04/29 03:03:37;;;;;;;18.77;6.75;;;;;;;8.04;100.00;97560.69;4978874;28;20042;-69
2022/04/29 03:06:04;;;;;;;17.73;7.05;;;;;;;8.03;100.00;97564.38;4977536;28;20061;-69
2022/04/29 03:08:29;;;;;;;13.05;6.68;;;;;;;8.06;100.00;97566.63;4965534;28;20454;-69
2022/04/29 03:10:55;;;;;;;13.30;6.60;;;;;;;8.04;100.00;97559.84;4979866;28;20521;-71
2022/04/29 03:13:21;;;;;;;16.65;6.70;;;;;;;8.01;100.00;97555.75;4962708;28;20209;-69
2022/04/29 03:15:53;;;;;;;15.48;6.28;;;;;;;8.07;100.00;97556.78;4963476;28;20053;-70
2022/04/29 03:18:20;;;;;;;13.98;6.93;;;;;;;8.02;100.00;97549.41;4962022;28;20051;-69
2022/04/29 03:20:56;;;;;;;13.02;6.10;;;;;;;7.97;100.00;97556.38;4977125;28;20034;-69
2022/04/29 03:23:23;;;;;;;15.73;6.40;;;;;;;7.92;100.00;97548.16;4977712;28;20200;-70
2022/04/29 03:25:53;;;;;;;11.05;5.65;;;;;;;7.92;100.00;97554.31;4963668;28;20077;-71
2022/04/29 03:28:18;;;;;;;13.73;6.68;;;;;;;7.98;100.00;97558.81;4976102;28;20070;-69
2022/04/29 03:30:45;;;;;;;16.30;7.38;;;;;;;8.00;100.00;97556.75;4977388;28;20093;-70
2022/04/29 03:33:11;;;;;;;14.70;6.93;;;;;;;8.02;100.00;97552.06;4977115;28;20039;-68
2022/04/29 03:35:47;;;;;;;16.17;7.00;;;;;;;8.07;100.00;97552.25;4978332;28;20050;-69
2022/04/29 03:38:42;;;;;;;17.40;6.78;;;;;;;8.09;100.00;97544.91;4957950;28;20065;-71
2022/04/29 03:41:08;;;;;;;14.73;6.60;;;;;;;8.04;100.00;97547.34;4975350;28;20054;-69
2022/04/29 03:43:36;;;;;;;13.30;6.95;;;;;;;8.05;100.00;97540.16;4977226;28;20035;-68
2022/04/29 03:46:05;;;;;;;18.50;7.25;;;;;;;8.03;100.00;97545.72;4960723;28;20461;-69
2022/04/29 03:51:47;;;;;;;12.77;6.90;;;;;;;8.05;100.00;97540.16;4977841;28;20039;-70
2022/04/29 03:54:13;;;;;;;14.18;7.20;;;;;;;8.12;100.00;97540.16;4977430;28;20068;-70
2022/04/29 03:56:42;;;;;;;13.52;7.07;;;;;;;8.17;100.00;97543.88;4962239;28;20473;-69
2022/04/29 03:59:09;;;;;;;13.98;7.35;;;;;;;8.15;100.00;97543.22;4976425;28;20055;-72
2022/04/29 04:01:36;;;;;;;15.32;7.38;;;;;;;8.10;100.00;97538.53;4976514;28;20074;-69
2022/04/29 04:04:08;;;;;;;14.77;7.60;;;;;;;8.04;100.00;97551.88;4961968;28;20117;-69
2022/04/29 04:06:49;;;;;;;17.42;7.22;;;;;;;7.99;100.00;97543.66;4976903;28;20092;-70
2022/04/29 04:09:21;;;;;;;14.05;7.18;;;;;;;8.02;100.00;97549.41;4962650;28;20047;-69
2022/04/29 04:11:48;;;;;;;12.30;7.15;;;;;;;7.96;100.00;97550.22;4963886;28;20058;-72
2022/04/29 04:14:28;;;;;;;14.30;7.30;;;;;;;8.02;100.00;97552.06;4956561;28;20054;-72
2022/04/29 04:16:54;;;;;;;17.35;8.80;;;;;;;8.09;100.00;97552.03;4978460;28;20048;-70
2022/04/29 04:19:20;;;;;;;15.38;7.63;;;;;;;8.10;100.00;97546.53;4957435;28;20071;-69
2022/04/29 04:21:45;;;;;;;16.00;7.70;;;;;;;8.08;100.00;97548.56;4976943;28;20121;-69
2022/04/29 04:24:11;;;;;;;13.30;7.57;;;;;;;8.09;100.00;97549.38;4962648;28;20359;-70
2022/04/29 04:26:37;;;;;;;13.45;7.13;;;;;;;8.09;100.00;97550.22;4976143;28;20080;-69
2022/04/29 04:29:06;;;;;;;17.65;7.85;;;;;;;8.16;100.00;97554.72;4976029;28;20042;-71
2022/04/29 04:31:38;;;;;;;17.75;7.00;;;;;;;8.20;100.00;97553.28;4956670;28;20716;-70
2022/04/29 04:34:49;;;;;;;19.02;7.50;;;;;;;8.20;100.00;97548.78;4960595;28;20097;-69
2022/04/29 04:36:53;;;;;;;15.52;7.68;;;;;;;8.21;100.00;97553.06;4975889;28;20054;-69
2022/04/29 04:39:24;;;;;;;13.80;7.03;;;;;;;8.17;100.00;97548.34;4974850;28;20082;-69
2022/04/29 04:41:53;;;;;;;15.38;7.22;;;;;;;8.28;100.00;97558.41;4976183;28;20046;-69
2022/04/29 04:44:27;;;;;;;13.88;7.40;;;;;;;8.18;100.00;97564.16;4962642;28;20056;-70
2022/04/29 04:46:53;;;;;;;20.25;8.15;;;;;;;8.21;100.00;97555.75;4977146;28;20397;-71
2022/04/29 04:49:47;;;;;;;10.85;6.25;;;;;;;8.17;100.00;97557.19;4962002;28;20061;-71
2022/04/29 04:52:21;;;;;;;14.57;6.82;;;;;;;8.25;100.00;97558.81;4975045;28;20047;-72
2022/04/29 04:54:47;;;;;;;13.95;7.03;;;;;;;8.29;100.00;97554.72;4960379;28;20423;-70
2022/04/29 04:57:12;;;;;;;15.57;7.20;;;;;;;8.25;100.00;97556.97;4975166;28;20076;-69
2022/04/29 04:59:38;;;;;;;12.50;6.80;;;;;;;8.38;100.00;97564.16;4976221;28;20401;-70
2022/04/29 05:02:04;;;;;;;15.05;7.70;;;;;;;8.40;100.00;97555.94;4974443;28;20458;-72
2022/04/29 05:04:50;;;;;;;13.18;7.40;;;;;;;8.42;100.00;97553.91;4957731;28;20522;-70
2022/04/29 05:07:34;;;;;;;12.20;7.18;;;;;;;8.44;100.00;97552.66;4960816;28;20227;-70
2022/04/29 05:10:00;;;;;;;13.30;6.85;;;;;;;8.51;100.00;97558.81;4975808;28;20581;-71
2022/04/29 05:12:26;;;;;;;16.15;7.50;;;;;;;8.58;100.00;97566.81;4957199;28;20589;-70
2022/04/29 05:15:11;;;;;;;14.52;7.13;;;;;;;8.61;100.00;97569.03;4958175;28;20283;-72
2022/04/29 05:17:40;;;;;;;15.23;7.15;;;;;;;8.61;100.00;97575.19;4958423;28;20375;-69
2022/04/29 05:20:22;;;;;;;15.68;7.47;;;;;;;8.64;100.00;97561.47;4955868;28;20038;-71
2022/04/29 05:22:48;;;;;;;16.38;7.45;;;;;;;8.59;100.00;97574.59;4975454;28;20489;-69
2022/04/29 05:25:14;;;;;;;14.35;6.97;;;;;;;8.59;100.00;97571.94;4977365;28;20516;-70
2022/04/29 05:27:58;;;;;;;13.80;7.50;;;;;;;8.60;100.00;97564.75;4962915;28;20446;-69
2022/04/29 05:30:43;;;;;;;14.18;6.70;;;;;;;8.57;100.00;97568.66;4961942;28;20038;-71
2022/04/29 05:33:21;;;;;;;19.92;7.10;;;;;;;8.68;100.00;97566.38;4960853;28;20031;-70
2022/04/29 05:36:07;;;;;;;11.32;6.28;;;;;;;8.62;100.00;97576.84;4960513;28;20130;-72
2022/04/29 05:44:37;;;;;;;13.38;6.70;;;;;;;8.63;100.00;97578.47;4959877;28;20031;-71
2022/04/29 05:47:03;;;;;;;12.15;6.75;;;;;;;8.61;100.00;97580.53;4976230;28;20568;-69
2022/04/29 05:49:29;;;;;;;15.85;7.30;;;;;;;8.68;100.00;97577.03;4961367;28;20039;-70
2022/04/29 05:51:54;;;;;;;12.20;7.22;;;;;;;8.74;100.00;97579.69;4977002;28;20082;-72
2022/04/29 05:54:22;;;;;;;13.95;6.45;;;;;;;8.75;100.00;97572.50;4974286;28;20520;-69
2022/04/29 05:56:48;;;;;;;15.07;7.45;;;;;;;8.75;100.00;97569.84;4957967;28;20262;-69
2022/04/29 05:59:14;;;;;;;12.18;6.80;;;;;;;8.83;100.00;97573.09;4973468;28;20034;-69
2022/04/29 06:01:51;;;;;;;17.17;6.90;;;;;;;8.88;100.00;97567.13;4960774;28;20047;-71
2022/04/29 06:04:19;;;;;;;12.05;6.78;;;;;;;8.96;100.00;97566.91;4975255;28;20402;-71
2022/04/29 06:06:45;;;;;;;17.05;7.72;;;;;;;9.14;100.00;97572.34;4974577;28;20501;-69
2022/04/29 06:09:11;;;;;;;14.98;7.03;;;;;;;9.34;100.00;97566.09;4974159;28;20047;-72
2022/04/29 06:11:36;;;;;;;12.57;7.35;;;;;;;9.54;100.00;97566.81;4958900;28;20353;-69
2022/04/29 06:14:04;;;;;;;13.07;6.95;;;;;;;9.76;100.00;97556.59;4976112;28;20495;-69
2022/04/29 06:16:58;;;;;;;16.67;6.80;;;;;;;9.94;100.00;97561.19;4961213;28;20062;-70
2022/04/29 06:19:53;;;;;;;13.85;6.50;;;;;;;10.12;100.00;97566.63;4962256;28;20053;-70
2022/04/29 06:22:42;;;;;;;14.63;6.93;;;;;;;10.23;100.00;97559.75;4959830;28;20522;-72
2022/04/29 06:25:08;;;;;;;13.30;7.70;;;;;;;10.52;100.00;97560.94;4963538;28;20409;-69
2022/04/29 06:27:34;;;;;;;15.27;6.70;;;;;;;10.65;100.00;97560.78;4974820;28;20043;-69
2022/04/29 06:30:00;;;;;;;18.70;7.05;;;;;;;10.88;100.00;97557.44;4956921;28;20406;-70
2022/04/29 06:32:40;;;;;;;14.95;7.00;;;;;;;11.08;100.00;97551.88;4975961;28;20121;-69
2022/04/29 06:35:35;;;;;;;11.93;7.13;;;;;;;11.29;100.00;97561.28;4960895;28;20107;-69
2022/04/29 06:38:02;;;;;;;12.60;7.20;;;;;;;11.39;100.00;97561.56;4976397;28;20038;-70
2022/04/29 06:40:46;;;;;;;14.57;7.07;;;;;;;11.70;100.00;97547.94;4961845;28;20062;-69
2022/04/29 06:43:14;;;;;;;14.07;6.97;;;;;;;11.99;100.00;97551.66;4957102;28;20134;-69
2022/04/29 06:45:58;;;;;;;10.43;6.80;;;;;;;12.33;100.00;97557.28;4960727;28;20050;-71
2022/04/29 06:48:42;;;;;;;15.05;6.90;;;;;;;12.59;100.00;97555.16;4961252;28;20101;-70
2022/04/29 06:51:07;;;;;;;15.85;6.43;;;;;;;12.57;100.00;97559.94;4961543;28;20043;-70
2022/04/29 06:53:47;;;;;;;16.35;6.90;;;;;;;12.62;100.00;97554.72;4958783;28;20078;-70
2022/04/29 06:56:17;;;;;;;13.05;7.25;;;;;;;12.58;100.00;97556.22;4973060;28;20053;-69
2022/04/29 06:58:43;;;;;;;13.18;6.32;;;;;;;12.73;100.00;97564.63;4975065;28;20046;-70
2022/04/29 07:01:09;;;;;;;12.77;6.28;;;;;;;12.64;100.00;97564.16;4963513;28;20051;-69
2022/04/29 07:03:38;;;;;;;10.63;6.53;;;;;;;12.63;100.00;97562.53;4962662;28;20075;-70
2022/04/29 07:06:06;;;;;;;14.15;6.68;;;;;;;12.87;100.00;97562.50;4977266;28;20121;-71
2022/04/29 07:08:31;;;;;;;16.50;8.05;;;;;;;13.00;100.00;97559.56;4979520;28;20039;-72
2022/04/29 07:11:15;;;;;;;16.98;6.65;;;;;;;12.88;100.00;97559.56;4962243;28;20600;-70
2022/04/29 07:13:54;;;;;;;10.23;6.15;;;;;;;13.01;100.00;97570.06;4979375;28;20042;-70
2022/04/29 07:16:20;;;;;;;11.95;6.38;;;;;;;13.36;100.00;97563.78;4964008;28;20051;-69
2022/04/29 07:19:03;;;;;;;16.60;6.88;;;;;;;13.21;100.00;97564.31;4976119;28;20039;-72
2022/04/29 07:21:29;;;;;;;12.07;6.30;;;;;;;13.26;100.00;97571.66;4977846;28;20047;-71
2022/04/29 07:23:55;;;;;;;15.23;6.78;;;;;;;13.11;100.00;97556.03;4977902;28;20444;-69
2022/04/29 07:26:23;;;;;;;13.40;6.25;;;;;;;13.18;100.00;97563.94;4977243;28;20074;-72
2022/04/29 07:28:49;;;;;;;10.27;5.65;;;;;;;13.28;100.00;97567.69;4977994;28;20496;-69
2022/04/29 07:31:17;;;;;;;11.23;5.90;;;;;;;13.46;100.00;97563.97;4975155;28;20430;-69
2022/04/29 07:34:14;;;;;;;14.60;6.22;;;;;;;13.61;100.00;97563.47;4959907;28;20042;-70
2022/04/29 07:42:37;;;;;;;17.30;6.03;;;;;;;13.86;100.00;97560.44;4962593;28;20046;-72
2022/04/29 07:45:02;;;;;;;12.82;6.63;;;;;;;14.12;100.00;97551.72;4976600;28;20034;-73
2022/04/29 07:47:52;;;;;;;9.45;6.10;;;;;;;14.05;94.28;97553.75;4964579;28;20042;-71
2022/04/29 07:50:29;;;;;;;10.98;5.88;;;;;;;13.68;96.54;97556.06;4976231;28;20119;-70
2022/04/29 07:52:56;;;;;;;13.73;6.20;;;;;;;13.99;96.71;97551.22;4976972;28;20053;-69
2022/04/29 07:55:23;;;;;;;12.90;5.82;;;;;;;13.92;94.24;97554.06;4959484;28;20080;-70
2022/04/29 07:57:49;;;;;;;9.40;5.43;;;;;;;13.94;97.02;97557.34;4961115;28;20397;-71
2022/04/29 08:00:15;;;;;;;10.57;5.60;;;;;;;14.18;96.02;97552.63;4960690;28;20046;-69
2022/04/29 08:02:43;;;;;;;15.30;6.43;;;;;;;14.32;94.84;97566.56;4964709;28;20051;-70
2022/04/29 08:05:10;;;;;;;12.27;6.40;;;;;;;14.35;93.08;97558.00;4957120;28;20038;-71
2022/04/29 08:07:36;;;;;;;11.23;6.13;;;;;;;14.48;96.94;97565.78;4978437;28;20049;-69
2022/04/29 08:10:03;;;;;;;10.82;5.80;;;;;;;14.64;95.68;97562.25;4979267;28;20035;-72
2022/04/29 08:12:30;;;;;;;13.98;5.82;;;;;;;14.56;92.41;97565.38;4958897;28;20529;-71
2022/04/29 08:15:14;;;;;;;13.07;5.97;;;;;;;14.67;93.78;97556.34;4962010;28;20126;-69
2022/04/29 08:18:03;;;;;;;12.00;5.40;;;;;;;14.68;93.15;97552.59;4961460;28;20129;-73
2022/04/29 08:20:29;;;;;;;13.88;6.03;;;;;;;14.83;93.65;97556.56;4956302;28;20038;-69
2022/04/29 08:22:55;;;;;;;11.00;6.18;;;;;;;14.97;92.93;97561.34;4963787;28;20078;-70
2022/04/29 08:25:23;;;;;;;11.95;5.97;;;;;;;14.99;92.93;97553.81;4975244;28;20409;-71
2022/04/29 08:27:52;;;;;;;13.40;6.20;;;;;;;15.25;95.04;97556.81;4978797;28;20043;-69
2022/04/29 08:30:20;;;;;;;10.13;5.78;;;;;;;15.19;94.25;97564.06;4976083;28;20037;-71
2022/04/29 08:32:47;;;;;;;10.68;5.72;;;;;;;15.19;92.69;97558.66;4961627;28;20454;-69
2022/04/29 08:35:22;;;;;;;12.40;5.20;;;;;;;14.90;89.77;97558.03;4976068;28;20030;-72
2022/04/29 08:37:49;;;;;;;18.45;5.80;;;;;;;14.81;89.74;97564.09;4965937;28;20035;-70
2022/04/29 08:40:16;;;;;;;9.70;5.43;;;;;;;15.02;92.39;97558.72;4975852;28;20069;-72
2022/04/29 08:42:42;;;;;;;10.90;5.53;;;;;;;15.15;90.61;97562.91;4977141;28;20117;-72
2022/04/29 08:45:11;;;;;;;9.50;5.57;;;;;;;15.17;89.40;97560.78;4958500;28;20142;-72
2022/04/29 08:47:55;;;;;;;8.32;5.07;;;;;;;15.51;91.67;97557.94;4962604;28;20546;-71
2022/04/29 08:50:21;;;;;;;10.20;5.30;;;;;;;15.45;83.74;97564.34;4954990;28;20101;-70
2022/04/29 08:52:49;;;;;;;14.18;5.60;;;;;;;15.27;86.70;97562.81;4961118;28;20081;-70
2022/04/29 09:00:44;;;;;;;14.82;5.80;;;;;;;16.32;87.01;97564.13;4961499;28;20145;-70
2022/04/29 09:03:13;;;;;;;14.65;5.97;;;;;;;17.32;82.06;97550.69;4965012;28;20034;-71
2022/04/29 09:05:40;;;;;;;10.32;5.72;;;;;;;17.88;77.84;97558.16;4960600;28;20049;-73
2022/04/29 09:08:05;;;;;;;11.32;6.00;;;;;;;17.85;77.21;97548.69;4962533;28;20043;-71
2022/04/29 09:10:35;;;;;;;11.18;5.35;;;;;;;17.69;71.38;97542.41;4963152;28;20039;-72
2022/04/29 09:13:13;;;;;;;12.18;5.47;;;;;;;17.81;78.57;97547.59;4964014;28;20331;-70
2022/04/29 09:15:52;;;;;;;13.85;6.03;;;;;;;17.71;75.54;97545.69;4963501;28;20046;-72
2022/04/29 09:18:39;;;;;;;9.60;5.30;;;;;;;17.85;71.85;97550.59;4975261;28;20039;-72
2022/04/29 09:21:12;;;;;;;10.10;5.88;;;;;;;17.68;74.81;97548.09;4976388;28;20375;-70
2022/04/29 09:23:54;;;;;;;9.50;5.40;;;;;;;17.54;76.78;97543.19;4963193;28;20038;-70
2022/04/29 09:26:39;;;;;;;17.13;5.63;;;;;;;17.31;75.75;97550.94;4960548;28;20039;-73
2022/04/29 09:29:30;;;;;;;10.10;5.65;;;;;;;17.38;76.44;97548.81;4960900;28;20049;-69
2022/04/29 09:32:03;;;;;;;11.20;5.47;;;;;;;17.46;75.80;97542.88;4960586;28;20039;-70
2022/04/29 09:34:58;;;;;;;8.13;5.07;;;;;;;17.74;75.59;97536.19;4961944;28;20065;-70
2022/04/29 09:37:28;;;;;;;8.15;5.32;;;;;;;17.52;70.86;97539.94;4961805;28;20050;-71
2022/04/29 09:40:00;;;;;;;11.55;5.18;;;;;;;17.36;73.14;97540.97;4960518;28;20081;-70
2022/04/29 09:42:45;;;;;;;11.75;5.63;;;;;;;16.91;75.05;97542.41;4959543;28;20409;-71
2022/04/29 09:45:22;;;;;;;10.38;5.20;;;;;;;16.79;79.80;97538.25;4958601;28;20138;-70
2022/04/29 09:47:53;;;;;;;16.85;5.68;;;;;;;17.11;77.49;97536.25;4963406;28;20035;-71
2022/04/29 09:50:19;;;;;;;11.23;5.45;;;;;;;16.97;74.63;97538.66;4961314;28;20046;-70
2022/04/29 09:52:45;;;;;;;11.30;5.25;;;;;;;17.52;72.09;97528.28;4960970;28;20039;-70
2022/04/29 09:55:19;;;;;;;9.27;5.25;;;;;;;17.89;69.19;97525.41;4959680;28;20109;-70
2022/04/29 09:58:01;;;;;;;9.07;5.45;;;;;;;17.75;71.58;97529.72;4973454;28;20057;-71
2022/04/29 10:00:27;;;;;;;11.50;5.65;;;;;;;18.01;67.50;97531.38;4959070;28;20143;-72
2022/04/29 10:02:53;;;;;;;9.18;5.10;;;;;;;18.06;67.32;97528.69;4961573;28;20499;-70
2022/04/29 10:05:22;;;;;;;10.15;5.40;;;;;;;18.59;64.08;97523.72;4975850;28;20492;-71
2022/04/29 10:08:08;;;;;;;10.55;5.47;;;;;;;18.96;57.92;97525.31;4960336;28;20051;-73
2022/04/29 10:10:34;;;;;;;14.05;5.55;;;;;;;19.13;57.97;97520.34;4975583;28;20211;-72
2022/04/29 10:13:01;;;;;;;8.93;4.85;;;;;;;19.14;55.98;97516.56;4976382;28;20054;-71
2022/04/29 10:15:42;;;;;;;11.55;5.13;;;;;;;19.17;55.90;97515.19;4961661;28;20271;-72
2022/04/29 10:21:53;;;;;;;10.43;5.85;;;;;;;18.91;57.61;97512.59;4956638;28;20433;-70
2022/04/29 10:24:19;;;;;;;9.15;5.35;;;;;;;18.78;60.74;97515.88;4960946;28;20488;-70
2022/04/29 10:26:46;;;;;;;10.02;5.05;;;;;;;18.65;61.67;97508.28;4960711;28;20035;-71
2022/04/29 10:29:14;;;;;;;8.05;5.15;;;;;;;18.35;60.06;97509.16;4960986;28;20554;-72
2022/04/29 10:31:40;;;;;;;7.78;5.50;;;;;;;18.42;59.12;97498.03;4960794;28;20601;-71
2022/04/29 10:34:29;;;;;;;8.38;4.68;;;;;;;18.78;53.20;97501.50;4976299;28;20235;-71
2022/04/29 10:36:55;;;;;;;10.00;5.32;;;;;;;19.04;54.81;97503.03;4961436;28;20042;-71
2022/04/29 10:39:21;;;;;;;8.75;5.18;;;;;;;19.30;54.29;97494.78;4975098;28;20043;-71
2022/04/29 10:42:06;;;;;;;9.68;5.13;;;;;;;19.82;56.69;97491.50;4965751;28;20697;-71
2022/04/29 10:44:32;;;;;;;14.35;5.47;;;;;;;19.30;61.47;97501.03;4958846;28;20122;-73
2022/04/29 10:47:24;;;;;;;12.55;5.65;;;;;;;19.67;68.15;97494.31;4966633;28;20506;-72
2022/04/29 10:50:30;;;;;;;11.88;5.43;;;;;;;19.83;51.75;97498.56;4963185;28;20047;-71
2022/04/29 10:53:35;;;;;;;10.63;5.00;;;;;;;20.67;54.85;97499.19;4958379;28;20133;-71
2022/04/29 10:56:26;;;;;;;13.35;5.05;;;;;;;21.10;47.96;97494.66;4977991;28;20104;-72
2022/04/29 10:59:09;;;;;;;10.47;5.17;;;;;;;21.34;45.04;97491.91;4620534;28;10000586;-73
2022/04/29 11:01:36;;;;;;;10.98;4.93;;;;;;;20.81;46.09;97475.66;4618854;28;9999827;-73
2022/04/29 11:04:27;;;;;;;9.48;5.53;;;;;;;20.46;45.67;97486.91;4962648;28;20212;-73
2022/04/29 11:06:53;;;;;;;7.10;5.03;;;;;;;21.87;46.65;97467.19;4963818;28;20123;-72
2022/04/29 11:09:24;;;;;;;12.27;4.90;;;;;;;23.15;41.33;97471.16;4962965;28;20042;-73
2022/04/29 11:11:50;;;;;;;9.98;5.00;;;;;;;24.06;44.16;97468.28;4962965;28;20042;-72
2022/04/29 11:15:12;;;;;;;7.95;4.13;;;;;;;25.42;40.93;97470.34;4962292;28;20043;-72
2022/04/29 11:18:12;;;;;;;9.20;4.88;;;;;;;26.42;37.14;97463.09;4961216;28;20057;-71
2022/04/29 11:20:38;;;;;;;8.77;4.82;;;;;;;27.47;31.35;97463.13;4962137;28;20039;-72
2022/04/29 11:25:51;;;;;;;8.05;4.70;;;;;;;27.43;29.77;97447.63;4962524;28;20039;-71
2022/04/29 11:28:26;;;;;;;8.75;4.35;;;;;;;24.73;37.41;97459.97;4975429;28;20045;-72
2022/04/29 11:31:08;;;;;;;12.88;4.65;;;;;;;25.20;37.62;97463.06;4935587;28;20516;-72
2022/04/29 11:33:37;;;;;;;7.35;4.40;;;;;;;28.06;32.93;97447.63;4963511;28;20077;-72
2022/04/29 11:36:05;;;;;;;9.85;5.15;;;;;;;29.95;25.68;97436.06;4958097;28;20670;-71
2022/04/29 11:38:38;;;;;;;6.25;4.03;;;;;;;27.01;30.68;97435.75;4962149;28;20047;-71
2022/04/29 11:41:04;;;;;;;10.10;4.65;;;;;;;23.83;31.55;97445.59;4974586;28;20058;-71
2022/04/29 11:43:30;;;;;;;7.80;4.70;;;;;;;22.98;35.09;97438.22;4959131;28;20078;-71
2022/04/29 11:46:01;;;;;;;9.93;4.43;;;;;;;22.84;36.56;97443.63;4959624;28;20042;-72
2022/04/29 11:48:28;;;;;;;8.60;4.30;;;;;;;22.58;39.13;97437.09;4944734;28;20089;-73
2022/04/29 11:50:57;;;;;;;10.52;5.00;;;;;;;21.95;40.36;97436.53;4961394;28;20554;-71
2022/04/29 11:53:23;;;;;;;7.57;4.03;;;;;;;21.56;42.42;97447.78;4961820;28;20050;-71
2022/04/29 11:55:52;;;;;;;7.57;4.50;;;;;;;21.03;39.06;97441.69;4976128;28;20050;-71
2022/04/29 11:58:17;;;;;;;9.27;4.65;;;;;;;20.44;41.75;97437.47;4959935;28;20046;-71
2022/04/29 12:00:54;;;;;;;8.70;4.70;;;;;;;20.60;42.91;97444.34;4961845;28;20077;-71
2022/04/29 12:03:22;;;;;;;10.23;4.28;;;;;;;20.76;43.96;97440.34;4966307;28;20200;-71
2022/04/29 12:05:48;;;;;;;5.80;4.00;;;;;;;20.82;41.54;97439.19;4962475;28;20074;-71
2022/04/29 12:08:16;;;;;;;9.50;4.57;;;;;;;20.66;41.12;97426.88;4961523;28;20093;-71
2022/04/29 12:10:45;;;;;;;10.40;4.53;;;;;;;20.71;39.34;97432.28;4977773;28;20043;-71